Milwaukee, Wisconsin
Current Conditions -  °F | °C
As of 12:52 AM on Friday 28 Nov 2014 (Local Time) from KMKE Reporting Station
Broken Clouds Broken Clouds  
Wind Chill: -10°   Ceiling: 14000
Heat Index: -10°   Visibility: 10mi
Dew Point: -14°   Wind: 3mph
Humidity: 74%   Direction: 310°NW
Pressure: 30.35"   Gusts: NA
Location:  43.04°N, 87.91°W
Report Text: KMKE 280652Z 31003KT 10SM BKN140 M10/M14 A3035 RMK AO2 SLP291 T11001139
Loading
Personal Weather Stations






























Interactive Weather Map New forecast layout! Learn more

10-Day Weather Forecast

Advertisements
Track Severe Weather on mobile